Mentone Flying Club Weather Planning

KRCR METAR:

KRCR 172115Z AUTO 25009KT 10SM CLR M07/M11 A3046 RMK AO2

 

 
The information contained on this page is for preliminary weather information only. It is not to be used as a substitute for a standard weather briefing. YOU MUST call a certified weather briefer for a LEGAL flight brief!

 

Call: 1-800-WX-BRIEF

 

Weather Information Links:

 Aviation Digital Data Service

Aviation Weather Center

Intellicast Weather

Unisys Weather

CSC Duat

AOPA Weather (not a legal source)

 

Current Surface Analysis Charts:

 

 

 

 

Current Radar Charts:

 

 

 

 

Current Visible Satellite Images:

 

 

Current Winds:

 

 

Icing Forecast: 

 

Current Wx at KSBN. Updated every 10 min.